createdAt,value
2019-06-07T00:02:04.450Z,4.53
2019-06-07T00:04:38.621Z,4.40
2019-06-07T00:07:09.005Z,4.77
2019-06-07T00:09:44.201Z,4.90
2019-06-07T00:12:17.606Z,5.83
2019-06-07T00:14:46.374Z,5.67
2019-06-07T00:17:17.194Z,5.43
2019-06-07T00:19:47.985Z,5.23
2019-06-07T00:22:33.017Z,4.50
2019-06-07T00:24:59.016Z,4.83
2019-06-07T00:27:27.441Z,4.73
2019-06-07T00:30:00.452Z,4.83
2019-06-07T00:32:28.877Z,5.13
2019-06-07T00:34:57.307Z,4.57
2019-06-07T00:37:28.473Z,4.67
2019-06-07T00:40:13.221Z,4.73
2019-06-07T00:42:30.092Z,5.13
2019-06-07T00:45:01.373Z,4.67
2019-06-07T00:47:32.877Z,5.10
2019-06-07T00:50:10.819Z,5.00
2019-06-07T00:53:13.173Z,4.40
2019-06-07T00:55:14.291Z,4.73
2019-06-07T00:57:46.753Z,4.90
2019-06-07T01:00:23.264Z,5.50
2019-06-07T01:02:55.675Z,4.63
2019-06-07T01:05:31.142Z,5.03
2019-06-07T01:08:04.978Z,5.10
2019-06-07T01:10:53.519Z,4.90
2019-06-07T01:13:19.452Z,4.70
2019-06-07T01:15:49.210Z,4.60
2019-06-07T01:18:38.209Z,4.20
2019-06-07T01:20:52.334Z,4.57
2019-06-07T01:23:59.719Z,5.07
2019-06-07T01:25:52.866Z,5.47
2019-06-07T01:28:24.388Z,4.80
2019-06-07T01:30:52.517Z,5.17
2019-06-07T01:33:38.517Z,5.00
2019-06-07T01:35:54.523Z,4.80
2019-06-07T01:38:26.895Z,5.17
2019-06-07T01:40:55.506Z,5.10
2019-06-07T01:43:31.030Z,4.90
2019-06-07T01:45:57.755Z,5.87
2019-06-07T01:48:48.201Z,4.80
2019-06-07T01:50:57.961Z,5.07
2019-06-07T01:53:28.495Z,5.20
2019-06-07T01:55:59.468Z,5.10
2019-06-07T01:58:30.855Z,5.30
2019-06-07T02:01:00.354Z,4.90
2019-06-07T02:03:33.123Z,5.57
2019-06-07T02:06:01.850Z,6.47
2019-06-07T02:08:34.312Z,5.23
2019-06-07T02:11:03.105Z,5.00
2019-06-07T02:13:34.433Z,5.10
2019-06-07T02:16:04.496Z,4.73
2019-06-07T02:18:35.152Z,5.33
2019-06-07T02:21:05.326Z,4.60
2019-06-07T02:23:36.689Z,5.07
2019-06-07T02:26:06.770Z,5.10
2019-06-07T02:28:45.026Z,5.43
2019-06-07T02:31:05.753Z,5.20
2019-06-07T02:33:40.308Z,4.60
2019-06-07T02:36:18.197Z,4.23
2019-06-07T02:38:52.411Z,4.07
2019-06-07T02:41:35.535Z,4.97
2019-06-07T02:44:07.615Z,4.70
2019-06-07T02:46:45.988Z,4.97
2019-06-07T02:49:20.133Z,4.70
2019-06-07T02:51:57.634Z,5.07
2019-06-07T02:54:40.391Z,4.53
2019-06-07T02:57:09.525Z,4.90
2019-06-07T03:00:05.532Z,5.07
2019-06-07T03:02:19.689Z,5.43
2019-06-07T03:04:51.029Z,5.27
2019-06-07T03:07:21.431Z,5.13
2019-06-07T03:09:55.925Z,4.80
2019-06-07T03:12:26.504Z,4.30
2019-06-07T03:14:58.389Z,4.13
2019-06-07T03:17:35.265Z,4.63
2019-06-07T03:20:06.986Z,4.20
2019-06-07T03:22:41.585Z,4.10
2019-06-07T03:25:13.663Z,4.10
2019-06-07T03:27:49.786Z,5.13
2019-06-07T03:30:57.856Z,5.33
2019-06-07T03:33:00.250Z,4.60
2019-06-07T03:35:31.315Z,5.03
2019-06-07T03:38:07.714Z,4.87
2019-06-07T03:40:43.729Z,4.93
2019-06-07T03:43:13.801Z,4.93
2019-06-07T03:45:42.227Z,5.93
2019-06-07T03:48:19.933Z,5.57
2019-06-07T03:51:04.143Z,5.07
2019-06-07T03:53:30.479Z,5.67
2019-06-07T03:55:59.391Z,5.83
2019-06-07T03:58:34.646Z,6.07
2019-06-07T04:01:02.163Z,6.00
2019-06-07T04:03:45.532Z,6.33
2019-06-07T04:06:05.505Z,5.50
2019-06-07T04:08:41.931Z,5.43
2019-06-07T04:11:17.529Z,5.80
2019-06-07T04:13:48.540Z,6.23
2019-06-07T04:16:18.606Z,7.77
2019-06-07T04:18:47.042Z,6.70
2019-06-07T04:21:18.150Z,8.97
2019-06-07T04:23:48.219Z,8.00
2019-06-07T04:26:19.539Z,8.23
2019-06-07T04:29:31.862Z,7.93
2019-06-07T04:31:32.159Z,9.00
2019-06-07T04:34:05.905Z,8.30
2019-06-07T04:36:46.096Z,9.93
2019-06-07T04:39:16.647Z,10.00
2019-06-07T04:41:49.913Z,11.83
2019-06-07T04:44:22.535Z,10.80
2019-06-07T04:46:56.383Z,12.10
2019-06-07T04:49:29.947Z,11.77
2019-06-07T04:52:07.233Z,10.93
2019-06-07T04:54:46.519Z,11.33
2019-06-07T04:57:14.963Z,10.50
2019-06-07T05:00:12.125Z,10.00
2019-06-07T05:02:23.946Z,11.63
2019-06-07T05:04:54.006Z,11.03
2019-06-07T05:07:32.957Z,13.57
2019-06-07T05:10:10.563Z,11.70
2019-06-07T05:12:44.542Z,12.53
2019-06-07T05:15:16.271Z,11.90
2019-06-07T05:17:47.665Z,12.43
2019-06-07T05:20:19.047Z,12.90
2019-06-07T05:22:47.549Z,12.57
2019-06-07T05:25:21.746Z,12.10
2019-06-07T05:28:00.330Z,12.10
2019-06-07T05:31:02.108Z,12.40
2019-06-07T05:33:08.814Z,12.53
2019-06-07T05:35:41.339Z,12.43
2019-06-07T05:38:10.020Z,12.97
2019-06-07T05:40:47.957Z,11.37
2019-06-07T05:43:35.043Z,11.47
2019-06-07T05:46:06.410Z,12.50
2019-06-07T05:48:41.696Z,10.10
2019-06-07T05:51:11.347Z,10.53
2019-06-07T05:53:43.151Z,11.80
2019-06-07T05:56:19.755Z,9.60
2019-06-07T05:58:48.182Z,10.40
2019-06-07T06:01:46.083Z,8.90
2019-06-07T06:03:58.534Z,9.63
2019-06-07T06:06:33.796Z,9.83
2019-06-07T06:09:13.694Z,9.20
2019-06-07T06:11:58.612Z,8.73
2019-06-07T06:14:18.818Z,8.83
2019-06-07T06:16:49.274Z,8.03
2019-06-07T06:19:14.817Z,8.40
2019-06-07T06:21:45.229Z,7.80
2019-06-07T06:24:22.498Z,8.13
2019-06-07T06:27:00.299Z,7.27
2019-06-07T06:29:24.397Z,8.47
2019-06-07T06:32:40.320Z,6.60
2019-06-07T06:34:45.762Z,6.03
2019-06-07T06:37:11.148Z,6.03
2019-06-07T06:39:50.119Z,4.93
2019-06-07T06:42:24.923Z,6.23
2019-06-07T06:44:54.119Z,5.80
2019-06-07T06:47:31.812Z,4.73
2019-06-07T06:50:01.921Z,4.23
2019-06-07T06:52:45.155Z,5.63
2019-06-07T06:55:16.762Z,4.77
2019-06-07T06:57:51.170Z,5.17
2019-06-07T07:00:19.244Z,4.90
2019-06-07T07:03:39.355Z,4.53
2019-06-07T07:05:23.777Z,5.13
2019-06-07T07:07:54.640Z,4.70
2019-06-07T07:10:32.205Z,4.43
2019-06-07T07:13:00.622Z,5.73
2019-06-07T07:15:29.069Z,5.80
2019-06-07T07:18:08.133Z,6.17
2019-06-07T07:20:30.213Z,6.57
2019-06-07T07:23:01.553Z,6.10
2019-06-07T07:25:35.349Z,6.57
2019-06-07T07:28:07.190Z,6.33
2019-06-07T07:30:43.206Z,6.10
2019-06-07T07:33:18.113Z,6.10
2019-06-07T07:36:09.482Z,7.03
2019-06-07T07:38:16.750Z,7.20
2019-06-07T07:41:04.548Z,6.40
2019-06-07T07:43:45.771Z,6.37
2019-06-07T07:46:30.276Z,5.80
2019-06-07T07:48:56.016Z,6.00
2019-06-07T07:51:27.190Z,6.03
2019-06-07T07:54:08.704Z,5.87
2019-06-07T07:56:45.337Z,5.53
2019-06-07T07:59:16.808Z,5.27
2019-06-07T08:01:49.236Z,4.70
2019-06-07T08:04:39.526Z,5.13
2019-06-07T08:06:54.737Z,3.80
2019-06-07T08:09:28.637Z,3.40
2019-06-07T08:12:01.856Z,3.53
2019-06-07T08:14:31.842Z,3.93
2019-06-07T08:17:03.386Z,4.93
2019-06-07T08:19:34.834Z,3.87
2019-06-07T08:22:04.809Z,4.63
2019-06-07T08:24:34.535Z,5.27
2019-06-07T08:27:25.435Z,4.40
2019-06-07T08:29:45.600Z,5.00
2019-06-07T08:32:15.306Z,4.73
2019-06-07T08:34:52.608Z,4.60
2019-06-07T08:38:13.507Z,4.03
2019-06-07T08:40:02.106Z,3.60
2019-06-07T08:42:37.234Z,3.83
2019-06-07T08:45:15.026Z,4.30
2019-06-07T08:47:53.525Z,4.33
2019-06-07T08:50:20.573Z,4.07
2019-06-07T08:52:55.957Z,4.07
2019-06-07T08:55:24.667Z,3.87
2019-06-07T08:58:03.374Z,3.67
2019-06-07T09:00:45.619Z,4.00
2019-06-07T09:03:07.161Z,4.30
2019-06-07T09:05:34.422Z,4.00
2019-06-07T09:08:29.115Z,3.60
2019-06-07T09:10:41.929Z,3.20
2019-06-07T09:13:11.992Z,3.33
2019-06-07T09:15:49.080Z,3.50
2019-06-07T09:18:44.316Z,3.27
2019-06-07T09:20:58.180Z,3.57
2019-06-07T09:23:28.956Z,3.60
2019-06-07T09:26:17.757Z,3.37
2019-06-07T09:28:38.390Z,3.70
2019-06-07T09:31:12.235Z,3.70
2019-06-07T09:33:41.286Z,4.27
2019-06-07T09:36:16.949Z,3.40
2019-06-07T09:38:45.383Z,3.87
2019-06-07T09:41:42.679Z,3.80
2019-06-07T09:44:04.730Z,3.53
2019-06-07T09:46:31.741Z,4.33
2019-06-07T09:49:18.769Z,4.30
2019-06-07T09:51:36.426Z,4.10
2019-06-07T09:54:10.784Z,4.40
2019-06-07T09:56:39.335Z,4.20
2019-06-07T09:59:12.946Z,3.97
2019-06-07T10:01:41.586Z,4.00
2019-06-07T10:04:28.133Z,3.90
2019-06-07T10:06:40.220Z,3.43
2019-06-07T10:11:47.249Z,3.90
2019-06-07T10:14:18.474Z,3.70
2019-06-07T10:16:48.044Z,3.90
2019-06-07T10:19:19.948Z,3.50
2019-06-07T10:21:56.924Z,4.10
2019-06-07T10:24:28.293Z,3.60
2019-06-07T10:27:06.031Z,3.93
2019-06-07T10:29:40.422Z,3.80
2019-06-07T10:32:20.711Z,4.07
2019-06-07T10:34:58.022Z,3.83
2019-06-07T10:37:29.401Z,3.03
2019-06-07T10:40:07.565Z,3.90
2019-06-07T10:42:48.085Z,3.37
2019-06-07T10:45:20.225Z,4.67
2019-06-07T10:47:51.479Z,3.00
2019-06-07T10:50:22.806Z,3.40
2019-06-07T10:52:54.193Z,3.00
2019-06-07T10:55:23.037Z,3.80
2019-06-07T10:57:57.474Z,3.37
2019-06-07T11:00:29.794Z,3.63
2019-06-07T11:03:03.613Z,3.90
2019-06-07T11:05:35.189Z,3.90
2019-06-07T11:08:05.959Z,3.57
2019-06-07T11:10:37.009Z,4.57
2019-06-07T11:13:10.264Z,3.70
2019-06-07T11:15:41.913Z,3.83
2019-06-07T11:18:16.570Z,3.47
2019-06-07T11:20:45.003Z,3.20
2019-06-07T11:23:15.074Z,3.60
2019-06-07T11:25:45.142Z,3.87
2019-06-07T11:28:16.064Z,4.10
2019-06-07T11:30:44.684Z,3.80
2019-06-07T11:33:16.325Z,4.33
2019-06-07T11:35:46.983Z,4.40
2019-06-07T11:38:18.792Z,4.40
2019-06-07T11:40:47.286Z,4.03
2019-06-07T11:43:19.126Z,4.30
2019-06-07T11:45:47.669Z,3.80
2019-06-07T11:48:17.586Z,4.30
2019-06-07T11:50:46.191Z,4.03
2019-06-07T11:53:14.923Z,4.20
2019-06-07T11:55:43.345Z,3.83
2019-06-07T11:58:21.904Z,3.90
2019-06-07T12:00:53.678Z,4.60
2019-06-07T12:03:24.795Z,4.17
2019-06-07T12:05:53.211Z,4.70
2019-06-07T12:08:27.533Z,4.10
2019-06-07T12:10:57.592Z,4.30
2019-06-07T12:13:27.650Z,4.63
2019-06-07T12:16:01.468Z,4.57
2019-06-07T12:18:32.538Z,4.53
2019-06-07T12:21:03.787Z,5.30
2019-06-07T12:23:37.963Z,4.60
2019-06-07T12:26:06.508Z,4.43
2019-06-07T12:28:35.013Z,4.37
2019-06-07T12:31:03.443Z,4.30
2019-06-07T12:33:31.862Z,4.60
2019-06-07T12:36:00.290Z,4.30
2019-06-07T12:38:28.697Z,4.63
2019-06-07T12:40:58.171Z,4.33
2019-06-07T12:43:28.353Z,4.67
2019-06-07T12:45:58.428Z,4.30
2019-06-07T12:48:29.588Z,5.93
2019-06-07T12:51:01.505Z,4.57
2019-06-07T12:53:32.479Z,3.93
2019-06-07T12:56:02.223Z,4.40
2019-06-07T12:58:35.301Z,4.17
2019-06-07T13:01:01.142Z,4.23
2019-06-07T13:03:36.562Z,4.60
2019-06-07T13:06:10.889Z,4.67
2019-06-07T13:08:51.267Z,4.80
2019-06-07T13:11:24.633Z,5.00
2019-06-07T13:13:52.739Z,4.17
2019-06-07T13:16:22.187Z,4.77
2019-06-07T13:18:53.186Z,3.93
2019-06-07T13:21:24.757Z,4.67
2019-06-07T13:23:55.756Z,4.70
2019-06-07T13:26:27.191Z,4.83
2019-06-07T13:28:58.336Z,4.50
2019-06-07T13:31:27.374Z,4.07
2019-06-07T13:33:57.602Z,4.10
2019-06-07T13:36:31.637Z,6.73
2019-06-07T13:39:00.124Z,4.30
2019-06-07T13:41:41.874Z,4.40
2019-06-07T13:44:03.042Z,4.60
2019-06-07T13:46:34.538Z,5.00
2019-06-07T13:49:05.827Z,4.33
2019-06-07T13:51:34.253Z,4.40
2019-06-07T13:54:08.863Z,4.50
2019-06-07T13:57:00.810Z,4.57
2019-06-07T13:59:13.787Z,4.33
2019-06-07T14:01:42.274Z,4.93
2019-06-07T14:04:10.960Z,4.57
2019-06-07T14:06:39.386Z,4.67
2019-06-07T14:09:10.883Z,4.93
2019-06-07T14:11:50.335Z,4.60
2019-06-07T14:14:15.040Z,5.20
2019-06-07T14:16:43.477Z,5.13
2019-06-07T14:19:14.781Z,4.93
2019-06-07T14:21:43.205Z,5.17
2019-06-07T14:24:11.630Z,4.63
2019-06-07T14:26:44.378Z,5.13
2019-06-07T14:29:14.075Z,4.90
2019-06-07T14:31:43.506Z,4.23
2019-06-07T14:34:22.466Z,4.50
2019-06-07T14:36:52.954Z,4.90
2019-06-07T14:39:24.939Z,4.80
2019-06-07T14:42:09.477Z,4.90
2019-06-07T14:44:43.491Z,5.00
2019-06-07T14:47:20.406Z,4.93
2019-06-07T14:50:00.739Z,4.37
2019-06-07T14:52:30.739Z,5.33
2019-06-07T14:55:04.433Z,4.90
2019-06-07T14:57:36.531Z,4.43
2019-06-07T15:00:12.908Z,4.47
2019-06-07T15:02:41.318Z,4.90
2019-06-07T15:05:13.301Z,5.63
2019-06-07T15:07:50.649Z,5.17
2019-06-07T15:10:26.614Z,5.40
2019-06-07T15:12:56.030Z,5.20
2019-06-07T15:15:43.825Z,5.07
2019-06-07T15:18:13.883Z,5.17
2019-06-07T15:20:42.316Z,5.30
2019-06-07T15:23:10.736Z,5.03
2019-06-07T15:25:43.259Z,5.50
2019-06-07T15:28:11.661Z,5.27
2019-06-07T15:30:44.722Z,5.23
2019-06-07T15:33:20.280Z,5.07
2019-06-07T15:35:53.182Z,4.80
2019-06-07T15:38:33.198Z,4.93
2019-06-07T15:41:02.838Z,5.27
2019-06-07T15:43:31.224Z,4.80
2019-06-07T15:46:01.285Z,5.30
2019-06-07T15:48:36.089Z,5.50
2019-06-07T15:51:06.375Z,5.10
2019-06-07T15:53:39.916Z,5.23
2019-06-07T15:56:05.415Z,4.93
2019-06-07T15:58:35.127Z,5.10
2019-06-07T16:01:06.754Z,4.77
2019-06-07T16:03:45.780Z,5.20
2019-06-07T16:06:19.478Z,5.30
2019-06-07T16:08:47.353Z,4.70
2019-06-07T16:11:21.420Z,5.10
2019-06-07T16:13:56.179Z,5.27
2019-06-07T16:16:27.690Z,5.53
2019-06-07T16:18:56.113Z,6.87
2019-06-07T16:21:27.286Z,5.23
2019-06-07T16:23:57.346Z,5.50
2019-06-07T16:26:34.025Z,5.80
2019-06-07T16:29:01.675Z,5.30
2019-06-07T16:31:30.395Z,5.40
2019-06-07T16:34:01.787Z,4.93
2019-06-07T16:36:31.991Z,6.40
2019-06-07T16:39:02.091Z,5.63
2019-06-07T16:41:34.103Z,5.50
2019-06-07T16:44:02.517Z,5.70
2019-06-07T16:46:34.404Z,6.00
2019-06-07T16:49:05.583Z,5.70
2019-06-07T16:51:34.019Z,5.40
2019-06-07T16:54:02.494Z,5.73
2019-06-07T16:56:45.359Z,5.83
2019-06-07T16:59:12.902Z,5.43
2019-06-07T17:01:41.333Z,5.53
2019-06-07T17:04:09.818Z,5.63
2019-06-07T17:06:39.997Z,5.60
2019-06-07T17:09:08.678Z,5.37
2019-06-07T17:11:42.338Z,6.30
2019-06-07T17:14:12.117Z,6.17
2019-06-07T17:16:45.562Z,6.60
2019-06-07T17:19:16.843Z,5.90
2019-06-07T17:21:53.796Z,5.33
2019-06-07T17:24:22.221Z,6.10
2019-06-07T17:26:53.597Z,7.07
2019-06-07T17:29:22.016Z,5.70
2019-06-07T17:31:57.486Z,6.67
2019-06-07T17:34:30.479Z,6.07
2019-06-07T17:37:00.567Z,6.53
2019-06-07T17:39:28.970Z,6.90
2019-06-07T17:42:02.195Z,5.73
2019-06-07T17:44:27.613Z,6.03
2019-06-07T17:46:57.700Z,6.17
2019-06-07T17:49:31.625Z,6.20
2019-06-07T17:52:00.371Z,6.70
2019-06-07T17:54:29.054Z,6.70
2019-06-07T17:56:57.473Z,5.60
2019-06-07T17:59:25.885Z,6.40
2019-06-07T18:02:14.099Z,6.00
2019-06-07T18:04:34.205Z,5.97
2019-06-07T18:07:02.858Z,6.83
2019-06-07T18:09:35.981Z,6.20
2019-06-07T18:12:13.013Z,7.97
2019-06-07T18:14:44.527Z,5.97
2019-06-07T18:17:14.592Z,7.03
2019-06-07T18:19:48.872Z,6.77
2019-06-07T18:22:17.415Z,6.87
2019-06-07T18:24:46.526Z,6.27
2019-06-07T18:27:15.275Z,6.50
2019-06-07T18:29:46.958Z,6.23
2019-06-07T18:32:15.435Z,6.37
2019-06-07T18:34:44.122Z,6.60
2019-06-07T18:37:12.535Z,6.60
2019-06-07T18:39:40.970Z,6.60
2019-06-07T18:42:09.396Z,6.60
2019-06-07T18:44:37.834Z,7.50
2019-06-07T18:47:06.245Z,7.43
2019-06-07T18:49:36.151Z,6.50
2019-06-07T18:52:12.465Z,8.03
2019-06-07T18:54:40.896Z,7.00
2019-06-07T18:57:12.258Z,7.30
2019-06-07T18:59:39.544Z,6.77
2019-06-07T19:02:08.122Z,6.40
2019-06-07T19:04:36.559Z,7.47
2019-06-07T19:07:05.238Z,6.77
2019-06-07T19:09:33.661Z,6.30
2019-06-07T19:12:02.081Z,7.00
2019-06-07T19:14:37.189Z,7.03
2019-06-07T19:17:00.649Z,6.60
2019-06-07T19:19:29.318Z,6.53
2019-06-07T19:21:58.301Z,7.23
2019-06-07T19:24:26.843Z,7.17
2019-06-07T19:26:56.646Z,6.50
2019-06-07T19:29:25.166Z,7.27
2019-06-07T19:31:54.866Z,7.27
2019-06-07T19:34:23.399Z,7.10
2019-06-07T19:36:52.057Z,7.33
2019-06-07T19:39:20.738Z,6.80
2019-06-07T19:41:49.142Z,7.10
2019-06-07T19:44:17.591Z,7.50
2019-06-07T19:46:46.004Z,8.87
2019-06-07T19:49:14.662Z,7.03
2019-06-07T19:51:43.083Z,7.30
2019-06-07T19:54:11.757Z,7.50
2019-06-07T19:56:40.181Z,7.73
2019-06-07T19:59:08.615Z,8.33
2019-06-07T20:01:37.275Z,7.50
2019-06-07T20:04:05.703Z,7.20
2019-06-07T20:06:34.202Z,7.73
2019-06-07T20:09:03.008Z,7.30
2019-06-07T20:11:31.559Z,7.57
2019-06-07T20:14:00.789Z,7.30
2019-06-07T20:16:29.568Z,7.17
2019-06-07T20:18:58.170Z,7.03
2019-06-07T20:21:26.614Z,7.17
2019-06-07T20:23:55.049Z,7.50
2019-06-07T20:26:23.482Z,8.73
2019-06-07T20:28:51.931Z,10.37
2019-06-07T20:31:20.357Z,9.40
2019-06-07T20:33:48.809Z,9.13
2019-06-07T20:36:17.224Z,7.73
2019-06-07T20:38:46.609Z,8.27
2019-06-07T20:41:15.262Z,8.43
2019-06-07T20:43:43.687Z,9.13
2019-06-07T20:46:12.193Z,9.50
2019-06-07T20:48:40.626Z,7.53
2019-06-07T20:51:09.131Z,7.87
2019-06-07T20:53:37.551Z,8.43
2019-06-07T20:56:06.796Z,8.00
2019-06-07T20:58:35.454Z,6.83
2019-06-07T21:01:04.779Z,7.83
2019-06-07T21:03:33.591Z,8.40
2019-06-07T21:06:03.319Z,7.87
2019-06-07T21:08:32.024Z,7.43
2019-06-07T21:11:01.601Z,10.17
2019-06-07T21:13:30.187Z,7.80
2019-06-07T21:15:59.900Z,8.23
2019-06-07T21:18:28.502Z,7.63
2019-06-07T21:20:56.934Z,7.03
2019-06-07T21:23:25.354Z,5.17
2019-06-07T21:25:53.781Z,5.23
2019-06-07T21:28:22.199Z,3.97
2019-06-07T21:30:50.635Z,3.90
2019-06-07T21:33:19.046Z,5.97
2019-06-07T21:35:47.482Z,4.63
2019-06-07T21:38:15.909Z,5.73
2019-06-07T21:40:44.330Z,4.33
2019-06-07T21:43:12.894Z,4.27
2019-06-07T21:45:41.717Z,2.87
2019-06-07T21:48:11.586Z,3.37
2019-06-07T21:50:40.341Z,3.80
2019-06-07T21:53:08.769Z,1.90
2019-06-07T21:55:37.205Z,2.57
2019-06-07T21:58:06.947Z,6.00
2019-06-07T22:00:51.021Z,2.67
2019-06-07T22:03:19.451Z,2.47
2019-06-07T22:05:49.350Z,4.37
2019-06-07T22:08:17.966Z,3.13
2019-06-07T22:10:46.425Z,3.90
2019-06-07T22:13:14.894Z,2.57
2019-06-07T22:15:44.172Z,1.90
2019-06-07T22:18:12.961Z,3.10
2019-06-07T22:20:41.517Z,2.37
2019-06-07T22:23:10.661Z,1.57
2019-06-07T22:25:39.399Z,2.67
2019-06-07T22:28:08.099Z,1.90
2019-06-07T22:30:36.622Z,1.53
2019-06-07T22:33:06.411Z,1.40
2019-06-07T22:35:35.050Z,2.23
2019-06-07T22:38:03.720Z,1.93
2019-06-07T22:40:32.403Z,2.80
2019-06-07T22:43:00.826Z,2.70
2019-06-07T22:45:29.262Z,1.90
2019-06-07T22:47:57.931Z,1.90
2019-06-07T22:50:26.366Z,2.03
2019-06-07T22:52:55.036Z,1.57
2019-06-07T22:55:23.461Z,1.60
2019-06-07T22:57:59.066Z,2.70
2019-06-07T23:00:32.189Z,1.87
2019-06-07T23:03:00.639Z,5.40
2019-06-07T23:05:29.114Z,3.20
2019-06-07T23:07:57.542Z,1.50
2019-06-07T23:10:25.985Z,1.77
2019-06-07T23:12:54.478Z,1.67
2019-06-07T23:15:22.897Z,2.57
2019-06-07T23:17:51.322Z,1.30
2019-06-07T23:20:20.352Z,2.50
2019-06-07T23:22:48.773Z,1.70
2019-06-07T23:25:20.839Z,1.50
2019-06-07T23:27:47.499Z,2.30
2019-06-07T23:30:16.778Z,2.77
2019-06-07T23:32:45.204Z,2.57
2019-06-07T23:35:14.880Z,1.73
2019-06-07T23:37:43.472Z,1.80
2019-06-07T23:40:13.165Z,2.37
2019-06-07T23:42:41.993Z,2.57
2019-06-07T23:45:11.987Z,1.40
2019-06-07T23:47:40.960Z,2.03
2019-06-07T23:50:09.722Z,1.93
2019-06-07T23:52:38.149Z,1.60
2019-06-07T23:55:09.757Z,1.67
2019-06-07T23:57:38.439Z,1.27
